Time;durP1;ratioP1;P1;durP2;ratioP2;P2;SDS_P1;SDS_P2;PMS_P1;PMS_P2;Temp;Humidity;BMP_temperature;BMP_pressure;BME280_temperature;BME280_humidity;BME280_pressure;Samples;Min_cycle;Max_cycle;Signal;HPM_P1;HPM_P2
2022/01/09 00:01:28;;;;;;;1.10;0.90;;;4.20;99.90;;;;;;5009703;28;20192;-78
2022/01/09 00:03:54;;;;;;;4.77;1.17;;;4.20;99.90;;;;;;5028224;28;20655;-79
2022/01/09 00:06:20;;;;;;;0.70;0.70;;;4.30;99.90;;;;;;5025787;28;20192;-78
2022/01/09 00:08:45;;;;;;;1.13;0.90;;;4.20;99.90;;;;;;5027143;28;20184;-79
2022/01/09 00:11:12;;;;;;;1.67;1.13;;;4.20;99.90;;;;;;5025512;28;20169;-78
2022/01/09 00:13:38;;;;;;;0.93;0.80;;;4.20;99.90;;;;;;5028367;28;20199;-79
2022/01/09 00:16:04;;;;;;;1.80;1.00;;;4.20;99.90;;;;;;5027449;28;20188;-78
2022/01/09 00:18:30;;;;;;;0.70;0.70;;;4.20;99.90;;;;;;5024848;28;20740;-79
2022/01/09 00:20:56;;;;;;;1.17;1.00;;;4.20;99.90;;;;;;5030206;28;20237;-78
2022/01/09 00:23:21;;;;;;;1.20;0.90;;;4.20;99.90;;;;;;5030056;28;20197;-79
2022/01/09 00:25:47;;;;;;;1.57;0.90;;;4.20;99.90;;;;;;5025118;28;20259;-79
2022/01/09 00:28:12;;;;;;;0.87;0.67;;;4.20;99.90;;;;;;5008601;28;20247;-79
2022/01/09 00:30:38;;;;;;;1.13;0.93;;;4.20;99.90;;;;;;5025937;28;20610;-79
2022/01/09 00:33:07;;;;;;;0.87;0.77;;;4.30;99.90;;;;;;5011396;28;20270;-79
2022/01/09 00:35:34;;;;;;;1.33;1.00;;;4.20;99.90;;;;;;5034818;28;20194;-79
2022/01/09 00:37:59;;;;;;;1.40;1.00;;;4.30;99.90;;;;;;5034826;28;20216;-78
2022/01/09 00:40:25;;;;;;;1.20;0.70;;;4.30;99.90;;;;;;5035879;28;20200;-78
2022/01/09 00:42:51;;;;;;;1.37;1.10;;;4.30;99.90;;;;;;5018146;28;20183;-78
2022/01/09 00:45:17;;;;;;;1.13;0.80;;;4.30;99.90;;;;;;5036083;28;20187;-78
2022/01/09 00:47:43;;;;;;;1.70;0.80;;;4.30;99.90;;;;;;5035722;28;20275;-78
2022/01/09 00:50:10;;;;;;;1.07;0.97;;;4.30;99.90;;;;;;5036227;28;20709;-78
2022/01/09 00:52:36;;;;;;;1.00;0.90;;;4.30;99.90;;;;;;5035173;28;20189;-79
2022/01/09 00:55:02;;;;;;;0.93;0.80;;;4.30;99.90;;;;;;5045211;28;20526;-79
2022/01/09 00:57:28;;;;;;;3.63;0.90;;;4.30;99.90;;;;;;5036586;28;20682;-79
2022/01/09 00:59:54;;;;;;;1.00;0.90;;;4.30;99.90;;;;;;5038139;28;20253;-79
2022/01/09 01:02:19;;;;;;;0.93;0.83;;;4.40;99.90;;;;;;5034899;28;20718;-78
2022/01/09 01:04:47;;;;;;;1.50;0.87;;;4.40;99.90;;;;;;5017888;28;20180;-79
2022/01/09 01:07:12;;;;;;;0.90;0.70;;;4.40;99.90;;;;;;5034371;28;20196;-79
2022/01/09 01:09:38;;;;;;;0.70;0.70;;;4.40;99.90;;;;;;5016498;28;20172;-79
2022/01/09 01:12:04;;;;;;;1.20;0.73;;;4.30;99.90;;;;;;5032628;28;20184;-79
2022/01/09 01:14:31;;;;;;;1.43;0.73;;;4.30;99.90;;;;;;5017403;28;20561;-79
2022/01/09 01:16:57;;;;;;;1.10;0.80;;;4.40;99.90;;;;;;5034373;28;20207;-79
2022/01/09 01:19:23;;;;;;;1.27;0.70;;;4.40;99.90;;;;;;5034824;28;20188;-78
2022/01/09 01:21:49;;;;;;;1.50;0.80;;;4.40;99.90;;;;;;5017217;28;20235;-79
2022/01/09 01:24:15;;;;;;;0.77;0.73;;;4.40;99.90;;;;;;5017219;28;20570;-78
2022/01/09 01:26:40;;;;;;;3.33;0.60;;;4.40;99.90;;;;;;5017151;28;20200;-78
2022/01/09 01:29:06;;;;;;;0.70;0.70;;;4.40;99.90;;;;;;5035079;28;20259;-78
2022/01/09 01:31:31;;;;;;;1.07;0.80;;;4.50;99.90;;;;;;5034609;28;20238;-79
2022/01/09 01:33:57;;;;;;;1.07;0.97;;;4.50;99.90;;;;;;5034714;28;20645;-79
2022/01/09 01:36:23;;;;;;;0.93;0.87;;;4.50;99.90;;;;;;5034404;28;20204;-78
2022/01/09 01:38:48;;;;;;;3.43;1.00;;;4.50;99.90;;;;;;5034804;28;20638;-78
2022/01/09 01:41:14;;;;;;;0.70;0.50;;;4.50;99.90;;;;;;5016948;28;20617;-79
2022/01/09 01:43:39;;;;;;;1.17;0.93;;;4.50;99.90;;;;;;5017122;28;20619;-78
2022/01/09 01:46:05;;;;;;;1.43;1.20;;;4.50;99.90;;;;;;5034833;28;20251;-78
2022/01/09 01:48:31;;;;;;;1.17;1.00;;;4.50;99.90;;;;;;5016581;28;20188;-78
2022/01/09 01:50:57;;;;;;;1.00;0.80;;;4.50;99.90;;;;;;5034990;28;20565;-78
2022/01/09 01:53:24;;;;;;;1.77;1.10;;;4.50;99.90;;;;;;5016997;28;20219;-78
2022/01/09 01:55:54;;;;;;;1.73;1.30;;;4.50;99.90;;;;;;5034696;28;20650;-78
2022/01/09 01:58:20;;;;;;;1.90;1.27;;;4.50;99.90;;;;;;5034693;28;20196;-78
2022/01/09 02:00:47;;;;;;;1.73;1.40;;;4.60;99.90;;;;;;5016870;28;20213;-78
2022/01/09 02:03:13;;;;;;;1.57;1.40;;;4.60;99.90;;;;;;5034377;28;20188;-79
2022/01/09 02:05:42;;;;;;;2.90;1.70;;;4.60;99.90;;;;;;5016886;28;20211;-78
2022/01/09 02:08:07;;;;;;;2.20;1.60;;;4.60;99.90;;;;;;5034360;28;20542;-79
2022/01/09 02:10:33;;;;;;;1.60;1.50;;;4.70;99.90;;;;;;5016268;28;20242;-78
2022/01/09 02:12:59;;;;;;;2.00;1.80;;;4.70;99.90;;;;;;5016228;28;20188;-78
2022/01/09 02:15:33;;;;;;;1.73;1.60;;;4.70;99.90;;;;;;5034049;28;20184;-78
2022/01/09 02:18:00;;;;;;;1.67;1.57;;;4.80;99.90;;;;;;5016258;28;20227;-78
2022/01/09 02:20:26;;;;;;;2.60;1.90;;;4.80;99.90;;;;;;5016022;28;20552;-78
2022/01/09 02:22:52;;;;;;;4.80;3.00;;;4.90;99.90;;;;;;5033196;28;20176;-78
2022/01/09 02:25:17;;;;;;;3.97;2.90;;;4.90;99.90;;;;;;5033805;28;20537;-78
2022/01/09 02:27:43;;;;;;;5.40;3.20;;;4.90;99.90;;;;;;5015924;28;20212;-78
2022/01/09 02:30:09;;;;;;;4.00;2.73;;;5.00;99.90;;;;;;5033692;28;20550;-78
2022/01/09 02:32:35;;;;;;;5.90;3.40;;;5.00;99.90;;;;;;5033608;28;20178;-78
2022/01/09 02:35:01;;;;;;;4.20;2.20;;;5.10;99.90;;;;;;5033691;28;20259;-78
2022/01/09 02:37:26;;;;;;;3.40;1.80;;;5.10;99.90;;;;;;5033196;28;20709;-78
2022/01/09 02:39:53;;;;;;;2.17;1.60;;;5.10;99.90;;;;;;5015339;28;20184;-78
2022/01/09 02:42:25;;;;;;;1.30;1.17;;;5.10;99.90;;;;;;5016061;28;20211;-77
2022/01/09 02:44:51;;;;;;;2.63;1.30;;;5.20;99.90;;;;;;5034009;28;20149;-78
2022/01/09 02:47:19;;;;;;;1.70;1.50;;;5.20;99.90;;;;;;5016156;28;20667;-77
2022/01/09 02:49:49;;;;;;;1.73;1.40;;;5.20;99.90;;;;;;5033469;28;20181;-77
2022/01/09 02:55:14;;;;;;;4.23;1.77;;;5.30;99.90;;;;;;5033490;28;20172;-77
2022/01/09 02:57:47;;;;;;;4.73;1.60;;;5.30;99.90;;;;;;5015167;28;20266;-78
2022/01/09 03:00:21;;;;;;;5.70;1.83;;;5.40;99.90;;;;;;5032645;28;20185;-78
2022/01/09 03:02:47;;;;;;;6.47;2.03;;;5.40;99.90;;;;;;5015392;28;20172;-77
2022/01/09 03:05:14;;;;;;;4.83;1.40;;;5.40;99.90;;;;;;5015739;28;20183;-77
2022/01/09 03:07:41;;;;;;;7.67;1.50;;;5.40;99.90;;;;;;5033039;28;20196;-77
2022/01/09 03:10:08;;;;;;;5.83;1.77;;;5.50;99.90;;;;;;5033019;28;20250;-77
2022/01/09 03:12:34;;;;;;;6.03;1.40;;;5.40;99.90;;;;;;5015283;28;20192;-79
2022/01/09 03:15:01;;;;;;;8.00;1.40;;;5.40;99.90;;;;;;5033067;28;20172;-77
2022/01/09 03:17:26;;;;;;;5.33;1.23;;;5.40;99.90;;;;;;5032548;28;20200;-77
2022/01/09 03:19:52;;;;;;;6.20;1.57;;;5.40;99.90;;;;;;5032879;28;20179;-78
2022/01/09 03:22:18;;;;;;;6.57;1.33;;;5.40;99.90;;;;;;5032808;28;20283;-78
2022/01/09 03:24:43;;;;;;;4.27;1.10;;;5.40;99.90;;;;;;5014919;28;20207;-77
2022/01/09 03:27:10;;;;;;;4.60;1.30;;;5.40;99.90;;;;;;5032764;28;20196;-78
2022/01/09 03:29:37;;;;;;;7.17;1.70;;;5.30;99.90;;;;;;5032778;28;20188;-77
2022/01/09 03:32:03;;;;;;;4.40;1.47;;;5.30;99.90;;;;;;5032805;28;20189;-78
2022/01/09 03:34:28;;;;;;;7.43;1.50;;;5.30;99.90;;;;;;5032428;28;20620;-78
2022/01/09 03:36:54;;;;;;;10.30;1.93;;;5.30;99.90;;;;;;5014286;28;20228;-78
2022/01/09 03:39:19;;;;;;;10.17;2.20;;;5.30;99.90;;;;;;5014598;28;20195;-77
2022/01/09 03:41:45;;;;;;;8.37;2.00;;;5.40;99.90;;;;;;5014944;28;20219;-77
2022/01/09 03:44:10;;;;;;;10.10;2.63;;;5.40;99.90;;;;;;5014451;28;20192;-77
2022/01/09 03:46:36;;;;;;;17.33;3.33;;;5.50;99.90;;;;;;5032687;28;20184;-77
2022/01/09 03:49:01;;;;;;;19.70;3.37;;;5.50;99.90;;;;;;5032967;28;20212;-77
2022/01/09 03:51:32;;;;;;;15.50;3.10;;;5.60;99.90;;;;;;5033147;28;20192;-77
2022/01/09 03:53:59;;;;;;;26.57;5.03;;;5.70;99.90;;;;;;5032381;28;20191;-77
2022/01/09 03:56:25;;;;;;;23.63;4.37;;;5.80;99.90;;;;;;5032614;28;20200;-77
2022/01/09 03:58:51;;;;;;;21.90;3.57;;;5.80;99.90;;;;;;5032762;28;20176;-77
2022/01/09 04:01:16;;;;;;;22.20;3.83;;;5.80;99.90;;;;;;5032688;28;20211;-78
2022/01/09 04:03:42;;;;;;;27.13;3.70;;;5.80;99.90;;;;;;5032245;28;20192;-77
2022/01/09 04:06:08;;;;;;;22.40;3.13;;;5.80;99.90;;;;;;5032827;28;20280;-77
2022/01/09 04:08:34;;;;;;;17.17;3.30;;;5.80;99.90;;;;;;5032550;28;20180;-77
2022/01/09 04:11:03;;;;;;;14.93;3.10;;;5.80;99.90;;;;;;5032580;28;20181;-78
2022/01/09 04:13:28;;;;;;;17.13;3.33;;;5.80;99.90;;;;;;5035824;28;20183;-78
2022/01/09 04:15:54;;;;;;;16.80;3.43;;;5.80;99.90;;;;;;5036087;28;20188;-78
2022/01/09 04:18:21;;;;;;;15.57;2.87;;;5.80;99.90;;;;;;5036399;28;20231;-77
2022/01/09 04:20:48;;;;;;;17.27;3.30;;;5.80;99.90;;;;;;5035766;28;20236;-77
2022/01/09 04:23:15;;;;;;;20.73;3.90;;;5.80;99.90;;;;;;5017679;28;20183;-78
2022/01/09 04:25:42;;;;;;;22.57;4.30;;;5.80;99.90;;;;;;5035795;28;20183;-77
2022/01/09 04:28:09;;;;;;;33.03;4.47;;;5.90;99.90;;;;;;5035761;28;20239;-77
2022/01/09 04:30:35;;;;;;;33.07;6.03;;;5.90;99.90;;;;;;5036133;28;20227;-78
2022/01/09 04:33:00;;;;;;;31.10;7.10;;;5.90;99.90;;;;;;5035392;28;20223;-77
2022/01/09 04:35:26;;;;;;;32.40;7.87;;;6.00;99.90;;;;;;5018078;28;20198;-77
2022/01/09 04:37:53;;;;;;;32.10;9.87;;;6.00;99.90;;;;;;5035495;28;20278;-78
2022/01/09 04:40:20;;;;;;;35.00;9.70;;;6.10;99.90;;;;;;5036152;28;20175;-78
2022/01/09 04:42:49;;;;;;;32.60;8.80;;;6.10;99.90;;;;;;5036245;28;20242;-78
2022/01/09 04:45:17;;;;;;;35.03;9.30;;;6.10;99.90;;;;;;5035225;28;20199;-78
2022/01/09 04:47:46;;;;;;;42.07;13.67;;;6.20;99.90;;;;;;5034464;28;20569;-78
2022/01/09 04:50:17;;;;;;;41.93;13.30;;;6.20;99.90;;;;;;5035361;28;20172;-77
2022/01/09 04:52:43;;;;;;;41.10;11.43;;;6.30;99.90;;;;;;5017651;28;20183;-78
2022/01/09 04:55:11;;;;;;;47.30;11.80;;;6.30;99.90;;;;;;5035044;28;20201;-77
2022/01/09 04:57:36;;;;;;;35.50;9.17;;;6.30;99.90;;;;;;5017613;28;20204;-78
2022/01/09 05:00:05;;;;;;;33.50;9.30;;;6.20;99.90;;;;;;5035257;28;20718;-78
2022/01/09 05:02:31;;;;;;;36.13;10.43;;;6.20;99.90;;;;;;5035184;28;20565;-77
2022/01/09 05:04:56;;;;;;;35.63;12.13;;;6.20;99.90;;;;;;5034563;28;20184;-77
2022/01/09 05:07:22;;;;;;;38.77;12.63;;;6.20;99.90;;;;;;5017333;28;20205;-77
2022/01/09 05:09:47;;;;;;;40.40;12.73;;;6.20;99.90;;;;;;5017255;28;20646;-78
2022/01/09 05:12:13;;;;;;;38.67;11.20;;;6.20;99.90;;;;;;5034629;28;20184;-77
2022/01/09 05:14:38;;;;;;;35.33;10.43;;;6.20;99.90;;;;;;5034970;28;20283;-77
2022/01/09 05:17:04;;;;;;;31.50;9.30;;;6.20;99.90;;;;;;5017131;28;20727;-77
2022/01/09 05:19:32;;;;;;;29.37;9.53;;;6.20;99.90;;;;;;5034815;28;20184;-78
2022/01/09 05:21:58;;;;;;;35.30;10.50;;;6.20;99.90;;;;;;5016658;28;20763;-78
2022/01/09 05:24:24;;;;;;;35.70;9.50;;;6.20;99.90;;;;;;5033594;28;20176;-78
2022/01/09 05:26:49;;;;;;;30.53;8.90;;;6.30;99.90;;;;;;5016912;28;20215;-77
2022/01/09 05:29:15;;;;;;;25.93;7.20;;;6.30;99.90;;;;;;5043115;23;20228;-80
2022/01/09 05:31:41;;;;;;;33.53;8.57;;;6.30;99.90;;;;;;5012946;28;20746;-81
2022/01/09 05:34:07;;;;;;;33.10;8.30;;;6.20;99.90;;;;;;4999193;28;20197;-81
2022/01/09 05:36:33;;;;;;;38.50;9.03;;;6.20;99.90;;;;;;4999201;28;20721;-80
2022/01/09 05:38:59;;;;;;;29.77;8.23;;;6.20;99.90;;;;;;5015403;28;20232;-80
2022/01/09 05:41:25;;;;;;;25.10;7.27;;;6.20;99.90;;;;;;5018669;28;20204;-81
2022/01/09 05:43:51;;;;;;;30.40;7.90;;;6.20;99.90;;;;;;5017145;28;20235;-80
2022/01/09 05:46:16;;;;;;;28.03;8.57;;;6.10;99.90;;;;;;5035231;28;20216;-80
2022/01/09 05:48:42;;;;;;;26.53;8.10;;;6.30;99.90;;;;;;5035009;28;20212;-80
2022/01/09 05:51:08;;;;;;;27.10;7.77;;;6.10;99.90;;;;;;5034957;28;20188;-80
2022/01/09 05:53:34;;;;;;;26.33;6.63;;;6.10;99.90;;;;;;5016892;28;20275;-80
2022/01/09 05:55:59;;;;;;;23.63;6.30;;;6.10;99.90;;;;;;5034959;28;20266;-80
2022/01/09 05:58:25;;;;;;;20.23;5.90;;;6.00;99.90;;;;;;5034458;28;20207;-81
2022/01/09 06:00:50;;;;;;;25.13;7.80;;;6.00;99.90;;;;;;5034395;28;20204;-80
2022/01/09 06:03:16;;;;;;;18.37;5.47;;;6.00;99.90;;;;;;5034032;28;20196;-80
2022/01/09 06:05:41;;;;;;;26.40;6.80;;;5.90;99.90;;;;;;5034568;28;20189;-80
2022/01/09 06:08:07;;;;;;;13.37;3.80;;;5.90;99.90;;;;;;5016846;28;20551;-80
2022/01/09 06:10:32;;;;;;;18.70;4.30;;;6.00;99.90;;;;;;5017351;28;20191;-79
2022/01/09 06:12:58;;;;;;;14.20;3.20;;;6.00;99.90;;;;;;5034695;28;20220;-79
2022/01/09 06:15:23;;;;;;;12.80;3.03;;;5.90;99.90;;;;;;5034630;28;20239;-79
2022/01/09 06:17:49;;;;;;;21.60;3.53;;;5.90;99.90;;;;;;5034543;28;20192;-80
2022/01/09 06:20:15;;;;;;;25.73;3.83;;;5.90;99.90;;;;;;5016680;28;20199;-79
2022/01/09 06:22:42;;;;;;;13.23;2.63;;;5.90;99.90;;;;;;5017056;28;20271;-80
2022/01/09 06:25:08;;;;;;;21.57;3.07;;;5.80;99.90;;;;;;5054003;28;20176;-79
2022/01/09 06:27:34;;;;;;;17.73;3.50;;;5.80;99.90;;;;;;5037848;28;20222;-79
2022/01/09 06:30:00;;;;;;;11.03;2.67;;;5.80;99.90;;;;;;5038151;28;20180;-79
2022/01/09 06:32:25;;;;;;;14.30;3.03;;;5.80;99.90;;;;;;5054298;28;20192;-80
2022/01/09 06:34:51;;;;;;;20.17;3.17;;;5.80;99.90;;;;;;5020342;28;20188;-80
2022/01/09 06:37:17;;;;;;;11.03;2.83;;;5.80;99.90;;;;;;5034457;28;20211;-80
2022/01/09 06:39:43;;;;;;;14.53;2.60;;;5.70;99.90;;;;;;5016614;28;20678;-80
2022/01/09 06:42:10;;;;;;;18.90;3.13;;;5.70;99.90;;;;;;5033470;28;20215;-80
2022/01/09 06:44:36;;;;;;;12.93;2.80;;;5.70;99.90;;;;;;5015833;28;20194;-80
2022/01/09 06:47:02;;;;;;;15.50;2.40;;;5.60;99.90;;;;;;5015741;28;20188;-80
2022/01/09 06:49:27;;;;;;;13.17;2.50;;;5.60;99.90;;;;;;5034136;28;20204;-79
2022/01/09 06:51:53;;;;;;;11.30;2.57;;;5.60;99.90;;;;;;5016447;28;20191;-80
2022/01/09 06:54:19;;;;;;;12.83;3.00;;;5.60;99.90;;;;;;5034607;28;20230;-79
2022/01/09 06:56:44;;;;;;;10.63;2.57;;;5.60;99.90;;;;;;5034275;28;20207;-80
2022/01/09 06:59:10;;;;;;;17.10;3.23;;;5.60;99.90;;;;;;5016956;28;20227;-80
2022/01/09 07:01:35;;;;;;;17.13;2.33;;;5.60;99.90;;;;;;5016435;28;20721;-80
2022/01/09 07:04:01;;;;;;;11.77;2.47;;;5.60;99.90;;;;;;5034163;28;20191;-79
2022/01/09 07:06:26;;;;;;;19.13;3.23;;;5.50;99.90;;;;;;5016097;28;20176;-79
2022/01/09 07:08:52;;;;;;;21.43;2.97;;;5.50;99.90;;;;;;5016081;28;20200;-80
2022/01/09 07:11:17;;;;;;;15.23;2.97;;;5.50;99.90;;;;;;5033300;28;20184;-80
2022/01/09 07:13:43;;;;;;;18.90;2.93;;;5.50;99.90;;;;;;5034034;28;20188;-80
2022/01/09 07:16:09;;;;;;;12.20;2.30;;;5.40;99.90;;;;;;5034100;28;20283;-80
2022/01/09 07:18:34;;;;;;;8.90;2.50;;;5.50;99.90;;;;;;5015590;28;20204;-80
2022/01/09 07:21:00;;;;;;;18.83;2.43;;;5.50;99.90;;;;;;5033461;28;20212;-80
2022/01/09 07:23:25;;;;;;;11.60;2.60;;;5.50;99.90;;;;;;5015895;28;20234;-80
2022/01/09 07:25:51;;;;;;;7.67;1.90;;;5.50;99.90;;;;;;5033516;28;20259;-79
2022/01/09 07:28:17;;;;;;;7.77;2.03;;;5.50;99.90;;;;;;5015642;28;20223;-80
2022/01/09 07:30:42;;;;;;;11.37;2.60;;;5.50;99.90;;;;;;5015863;28;20650;-80
2022/01/09 07:33:08;;;;;;;10.53;2.23;;;5.50;99.90;;;;;;5015576;28;20189;-80
2022/01/09 07:35:34;;;;;;;9.97;2.27;;;5.50;99.90;;;;;;5034033;28;20534;-80
2022/01/09 07:38:00;;;;;;;9.47;2.23;;;5.40;99.90;;;;;;5033735;28;20207;-80
2022/01/09 07:40:26;;;;;;;7.30;2.37;;;5.40;99.90;;;;;;5034451;28;20180;-78
2022/01/09 07:42:52;;;;;;;12.90;3.07;;;5.40;99.90;;;;;;5015379;28;20200;-79
2022/01/09 07:45:22;;;;;;;13.43;2.50;;;5.50;99.90;;;;;;5033564;28;20272;-81
2022/01/09 07:47:48;;;;;;;13.83;2.80;;;5.50;99.90;;;;;;5038185;28;20254;-79
2022/01/09 07:50:14;;;;;;;8.93;2.10;;;5.40;99.90;;;;;;5038134;28;20177;-79
2022/01/09 07:52:41;;;;;;;14.93;2.67;;;5.40;99.90;;;;;;5045942;28;20177;-78
2022/01/09 07:55:08;;;;;;;10.87;2.57;;;5.40;99.90;;;;;;5052458;28;20177;-80
2022/01/09 07:57:34;;;;;;;15.43;2.80;;;5.40;99.90;;;;;;5053914;28;20200;-81
2022/01/09 08:00:03;;;;;;;12.53;3.03;;;5.50;99.90;;;;;;5053802;28;20180;-79
2022/01/09 08:02:29;;;;;;;10.53;2.77;;;5.40;99.90;;;;;;5035414;28;20231;-78
2022/01/09 08:04:55;;;;;;;9.73;2.40;;;5.40;99.90;;;;;;5035788;28;20177;-79
2022/01/09 08:07:20;;;;;;;16.13;3.33;;;5.30;99.90;;;;;;5052935;28;20240;-78
2022/01/09 08:09:47;;;;;;;10.10;3.23;;;5.30;99.90;;;;;;5044803;28;20173;-79
2022/01/09 08:12:14;;;;;;;13.00;3.00;;;5.30;99.90;;;;;;5022939;28;20211;-79
2022/01/09 08:14:41;;;;;;;15.07;3.30;;;5.20;99.90;;;;;;5038897;28;20172;-79
2022/01/09 08:17:07;;;;;;;13.50;2.63;;;5.20;99.90;;;;;;5038758;28;20172;-79
2022/01/09 08:19:35;;;;;;;14.07;3.07;;;5.20;99.90;;;;;;5038364;28;20199;-79
2022/01/09 08:22:04;;;;;;;12.50;3.13;;;5.20;99.90;;;;;;5037496;28;20279;-81
2022/01/09 08:24:29;;;;;;;12.37;2.93;;;5.10;99.90;;;;;;5038952;28;20164;-79
2022/01/09 08:26:55;;;;;;;15.20;2.97;;;5.20;99.90;;;;;;5040148;28;20655;-80
2022/01/09 08:29:21;;;;;;;14.90;2.87;;;5.10;99.90;;;;;;5021697;28;20362;-79
2022/01/09 08:31:48;;;;;;;12.53;2.70;;;5.20;99.90;;;;;;5039225;28;20666;-81
2022/01/09 08:34:13;;;;;;;11.57;3.30;;;5.10;99.90;;;;;;5039215;28;20176;-82
2022/01/09 08:36:39;;;;;;;15.77;3.13;;;5.10;99.90;;;;;;5039390;28;20264;-80
2022/01/09 08:39:05;;;;;;;12.43;2.97;;;5.10;99.90;;;;;;5022271;28;20686;-80
2022/01/09 08:41:31;;;;;;;10.90;2.63;;;5.10;99.90;;;;;;5021007;28;20216;-80
2022/01/09 08:43:57;;;;;;;14.87;2.80;;;5.10;99.90;;;;;;5020886;28;20284;-79
2022/01/09 08:46:23;;;;;;;18.67;2.80;;;5.10;99.90;;;;;;5039719;28;20216;-80
2022/01/09 08:48:49;;;;;;;12.83;2.53;;;5.00;99.90;;;;;;5039324;28;20208;-81
2022/01/09 08:51:15;;;;;;;13.80;2.37;;;5.10;99.90;;;;;;5021244;28;20199;-80
2022/01/09 08:53:41;;;;;;;17.30;2.80;;;5.10;99.90;;;;;;5021541;28;20187;-79
2022/01/09 08:56:08;;;;;;;11.17;2.30;;;5.10;99.90;;;;;;5039008;28;20562;-79
2022/01/09 08:58:33;;;;;;;8.27;2.33;;;5.10;99.90;;;;;;5020381;28;20247;-79
2022/01/09 09:00:59;;;;;;;15.57;2.97;;;5.10;99.90;;;;;;5039591;28;20265;-80
2022/01/09 09:03:25;;;;;;;15.30;3.13;;;5.10;99.90;;;;;;5021927;28;20235;-79
2022/01/09 09:05:51;;;;;;;12.13;2.50;;;5.10;99.90;;;;;;5039793;28;20188;-79
2022/01/09 09:08:17;;;;;;;18.13;2.47;;;5.10;99.90;;;;;;5021000;28;20307;-80
2022/01/09 09:10:42;;;;;;;17.73;2.67;;;5.20;99.90;;;;;;5021047;28;20196;-79
2022/01/09 09:13:08;;;;;;;11.03;2.67;;;5.20;99.90;;;;;;5038866;28;20196;-79
2022/01/09 09:15:33;;;;;;;13.43;2.67;;;5.20;99.90;;;;;;5021120;28;20184;-79
2022/01/09 09:18:00;;;;;;;12.67;2.10;;;5.20;99.90;;;;;;5038209;28;20338;-79
2022/01/09 09:20:26;;;;;;;12.50;2.23;;;5.20;99.90;;;;;;5020582;28;20195;-79
2022/01/09 09:22:52;;;;;;;9.20;2.73;;;5.30;99.90;;;;;;5019747;28;20192;-80
2022/01/09 09:25:18;;;;;;;13.30;2.70;;;5.30;99.90;;;;;;5038565;28;20263;-80
2022/01/09 09:27:44;;;;;;;7.90;2.07;;;5.30;99.90;;;;;;5038039;28;20655;-81
2022/01/09 09:30:11;;;;;;;13.27;2.73;;;5.30;99.90;;;;;;5038894;28;20171;-82
2022/01/09 09:32:37;;;;;;;8.03;2.93;;;5.30;99.90;;;;;;5038416;28;20250;-81
2022/01/09 09:35:05;;;;;;;16.17;3.90;;;5.30;99.90;;;;;;5049318;28;20168;-83
2022/01/09 09:37:31;;;;;;;11.30;2.93;;;5.30;99.90;;;;;;5025389;28;20242;-80
2022/01/09 09:39:56;;;;;;;10.27;3.17;;;5.30;99.90;;;;;;5040279;28;20213;-82
2022/01/09 09:42:22;;;;;;;14.63;3.10;;;5.40;99.90;;;;;;5059111;28;20206;-83
2022/01/09 09:44:48;;;;;;;12.77;3.37;;;5.40;99.90;;;;;;5058639;28;20191;-83
2022/01/09 09:47:17;;;;;;;11.00;3.20;;;5.40;99.90;;;;;;5040174;28;20775;-84
2022/01/09 09:49:43;;;;;;;14.70;3.07;;;5.40;99.90;;;;;;5039891;28;20179;-82
2022/01/09 09:52:08;;;;;;;9.93;2.70;;;5.50;99.90;;;;;;5057843;28;20195;-82
2022/01/09 09:54:34;;;;;;;12.23;3.00;;;5.50;99.90;;;;;;5039750;28;20559;-81
2022/01/09 09:57:00;;;;;;;15.67;3.30;;;5.50;99.90;;;;;;5038705;28;20189;-81
2022/01/09 09:59:34;;;;;;;15.33;3.30;;;5.50;99.90;;;;;;5056881;28;20254;-81
2022/01/09 10:01:59;;;;;;;15.60;3.10;;;5.60;99.90;;;;;;5058424;28;20569;-83
2022/01/09 10:04:25;;;;;;;12.40;2.60;;;5.50;99.90;;;;;;5056711;28;20190;-80
2022/01/09 10:06:50;;;;;;;12.67;2.73;;;5.60;99.90;;;;;;5038941;28;20290;-80
2022/01/09 10:09:22;;;;;;;10.87;2.97;;;5.50;99.90;;;;;;5057098;28;20191;-80
2022/01/09 10:11:52;;;;;;;12.63;2.90;;;5.60;99.90;;;;;;5056276;28;20180;-80
2022/01/09 10:14:22;;;;;;;11.93;2.73;;;5.60;99.90;;;;;;5037998;28;20278;-80
2022/01/09 10:17:12;;;;;;;10.03;2.70;;;5.60;99.90;;;;;;5038062;28;20184;-80
2022/01/09 10:19:46;;;;;;;8.13;2.53;;;5.60;99.90;;;;;;5056735;28;20186;-79
2022/01/09 10:22:45;;;;;;;9.20;3.03;;;5.60;99.90;;;;;;5056537;28;20187;-79
2022/01/09 10:25:32;;;;;;;10.53;3.40;;;5.60;99.90;;;;;;4994964;28;20192;-79
2022/01/09 10:28:14;;;;;;;10.57;2.60;;;5.70;99.90;;;;;;5018072;28;20216;-79
2022/01/09 10:30:45;;;;;;;11.57;3.57;;;5.70;99.90;;;;;;5036378;28;20172;-79
2022/01/09 10:33:13;;;;;;;9.43;3.17;;;5.70;99.90;;;;;;5036819;28;20545;-79
2022/01/09 10:35:41;;;;;;;14.40;3.40;;;5.70;99.90;;;;;;5018933;28;20251;-79
2022/01/09 10:38:15;;;;;;;9.97;3.30;;;5.70;99.90;;;;;;5018227;28;20204;-78
2022/01/09 10:40:44;;;;;;;14.83;3.50;;;5.70;99.90;;;;;;5036700;28;20181;-79
2022/01/09 10:43:14;;;;;;;10.40;3.40;;;5.70;99.90;;;;;;5018455;28;20177;-80
2022/01/09 10:45:46;;;;;;;14.83;3.53;;;5.70;99.90;;;;;;5036797;28;20160;-80
2022/01/09 10:48:22;;;;;;;10.30;3.50;;;5.70;99.90;;;;;;5039212;28;20680;-81
2022/01/09 10:50:50;;;;;;;14.63;3.93;;;5.70;99.90;;;;;;5045739;28;20552;-80
2022/01/09 10:56:37;;;;;;;12.30;4.23;;;5.70;99.90;;;;;;5036687;28;20163;-80
2022/01/09 10:59:03;;;;;;;12.50;4.40;;;5.70;99.90;;;;;;5036404;28;20204;-81
2022/01/09 11:01:31;;;;;;;14.83;4.07;;;5.70;99.90;;;;;;5036100;28;20221;-80
2022/01/09 11:04:04;;;;;;;18.60;4.57;;;5.70;99.90;;;;;;5035665;28;20184;-81
2022/01/09 11:06:32;;;;;;;14.33;3.47;;;5.70;99.90;;;;;;5035107;28;20188;-80
2022/01/09 11:08:59;;;;;;;11.20;3.83;;;5.80;99.90;;;;;;5016954;28;20204;-79
2022/01/09 11:11:44;;;;;;;10.40;3.33;;;5.70;99.90;;;;;;5017484;28;20274;-79
2022/01/09 11:14:14;;;;;;;14.47;3.30;;;5.80;99.90;;;;;;5035828;28;20160;-79
2022/01/09 11:16:47;;;;;;;6.70;2.73;;;5.80;99.90;;;;;;5040385;28;20270;-79
2022/01/09 11:19:15;;;;;;;14.07;3.43;;;5.70;99.90;;;;;;5055412;28;20222;-79
2022/01/09 11:21:43;;;;;;;8.30;3.10;;;5.80;99.90;;;;;;5057493;28;20207;-79
2022/01/09 11:24:30;;;;;;;11.57;3.40;;;5.80;99.90;;;;;;5059754;28;20271;-80
2022/01/09 11:27:14;;;;;;;11.27;3.17;;;5.90;99.90;;;;;;5043140;28;20171;-80
2022/01/09 11:30:14;;;;;;;8.37;3.10;;;5.90;99.90;;;;;;5066062;22;20710;-78
2022/01/09 11:33:17;;;;;;;8.43;2.97;;;6.00;99.90;;;;;;5028317;28;20207;-78
2022/01/09 11:36:05;;;;;;;19.00;4.10;;;5.90;99.90;;;;;;5058880;28;20182;-79
2022/01/09 11:38:58;;;;;;;11.07;3.27;;;6.00;99.90;;;;;;5057381;28;20168;-79
2022/01/09 11:41:26;;;;;;;14.33;3.37;;;6.00;99.90;;;;;;5037235;28;20196;-79
2022/01/09 11:43:55;;;;;;;8.70;2.60;;;6.00;99.90;;;;;;5019858;28;20674;-79
2022/01/09 11:46:21;;;;;;;12.40;3.07;;;6.00;99.90;;;;;;5038817;28;20181;-79
2022/01/09 11:48:52;;;;;;;9.67;3.07;;;6.00;99.90;;;;;;5038294;28;20523;-78
2022/01/09 11:51:36;;;;;;;12.10;3.43;;;6.00;99.90;;;;;;5038996;28;20180;-78
2022/01/09 11:54:19;;;;;;;13.50;3.73;;;6.00;99.90;;;;;;5020524;28;20561;-78
2022/01/09 11:56:52;;;;;;;8.87;3.50;;;6.10;99.90;;;;;;5017500;28;20268;-79
2022/01/09 11:59:19;;;;;;;16.93;3.77;;;6.10;99.90;;;;;;5038619;28;20694;-79
2022/01/09 12:01:46;;;;;;;14.07;3.40;;;6.10;99.90;;;;;;5040760;28;20199;-79
2022/01/09 12:04:30;;;;;;;12.03;3.93;;;6.00;99.90;;;;;;5021068;28;20177;-78
2022/01/09 12:06:56;;;;;;;12.93;3.63;;;6.20;99.90;;;;;;5039408;28;20177;-79
2022/01/09 12:09:36;;;;;;;7.37;2.90;;;6.00;99.90;;;;;;5021158;28;20248;-79
2022/01/09 12:12:11;;;;;;;11.87;3.57;;;6.00;99.90;;;;;;5039033;28;20713;-77
2022/01/09 12:14:51;;;;;;;8.30;3.17;;;6.00;99.90;;;;;;5037187;28;20174;-77
2022/01/09 12:17:26;;;;;;;9.37;3.13;;;6.00;99.90;;;;;;5037006;28;20161;-77
2022/01/09 12:20:09;;;;;;;15.27;3.30;;;6.00;99.90;;;;;;5038296;28;20200;-78
2022/01/09 12:22:46;;;;;;;12.57;3.80;;;6.00;99.90;;;;;;5038225;28;20673;-77
2022/01/09 12:25:24;;;;;;;6.90;3.00;;;6.00;99.90;;;;;;5038136;28;20240;-77
2022/01/09 12:27:59;;;;;;;9.57;3.40;;;6.00;99.90;;;;;;5013970;28;20181;-77
2022/01/09 12:30:34;;;;;;;9.03;2.83;;;6.00;99.90;;;;;;5009174;28;20231;-78
2022/01/09 12:33:10;;;;;;;13.33;3.30;;;5.90;99.90;;;;;;4995594;28;20180;-78
2022/01/09 12:35:38;;;;;;;10.30;3.60;;;5.90;99.90;;;;;;5020302;28;20192;-79
2022/01/09 12:38:04;;;;;;;10.97;4.00;;;5.90;99.90;;;;;;5008287;28;20745;-79
2022/01/09 12:40:32;;;;;;;16.23;4.83;;;5.90;99.90;;;;;;5018557;28;20200;-78
2022/01/09 12:42:59;;;;;;;13.50;4.63;;;5.90;99.90;;;;;;5016084;28;20196;-78
2022/01/09 12:45:28;;;;;;;10.77;4.23;;;5.90;99.90;;;;;;5016358;28;20173;-78
2022/01/09 12:47:56;;;;;;;15.00;4.40;;;5.90;99.90;;;;;;5016642;28;20216;-78
2022/01/09 12:50:30;;;;;;;12.53;4.27;;;5.90;99.90;;;;;;5015484;28;20204;-79
2022/01/09 12:53:35;;;;;;;11.73;3.97;;;5.90;99.90;;;;;;5016128;28;20713;-78
2022/01/09 12:56:11;;;;;;;11.93;4.43;;;5.90;99.90;;;;;;4958299;29;20198;-79
2022/01/09 12:58:48;;;;;;;11.70;4.57;;;5.90;99.90;;;;;;4995740;28;20189;-78
2022/01/09 13:01:20;;;;;;;14.37;4.60;;;5.90;99.90;;;;;;5016743;28;20196;-77